createdAt,value
2019-02-12T00:03:13.317Z,2.63
2019-02-12T00:08:06.182Z,2.90
2019-02-12T00:12:59.044Z,3.40
2019-02-12T00:17:51.920Z,3.50
2019-02-12T00:22:44.760Z,3.43
2019-02-12T00:27:37.720Z,3.00
2019-02-12T00:32:30.599Z,3.23
2019-02-12T00:37:23.565Z,3.07
2019-02-12T00:42:16.415Z,3.47
2019-02-12T00:47:09.385Z,3.67
2019-02-12T00:52:02.254Z,3.53
2019-02-12T00:56:55.074Z,3.53
2019-02-12T01:01:47.940Z,3.70
2019-02-12T01:06:40.803Z,3.60
2019-02-12T01:11:35.467Z,3.50
2019-02-12T01:16:28.312Z,3.37
2019-02-12T01:21:26.318Z,3.50
2019-02-12T01:26:15.954Z,3.90
2019-02-12T01:31:08.921Z,3.80
2019-02-12T01:36:01.789Z,3.40
2019-02-12T01:40:54.636Z,4.20
2019-02-12T01:45:47.510Z,3.93
2019-02-12T01:50:40.394Z,4.00
2019-02-12T01:55:33.256Z,4.50
2019-02-12T02:00:26.124Z,4.27
2019-02-12T02:05:18.978Z,4.37
2019-02-12T02:10:15.440Z,4.47
2019-02-12T02:15:09.779Z,4.93
2019-02-12T02:20:03.351Z,4.60
2019-02-12T02:25:15.754Z,4.47
2019-02-12T02:30:10.573Z,4.40
2019-02-12T02:35:04.096Z,4.80
2019-02-12T02:39:57.041Z,4.17
2019-02-12T02:44:49.920Z,4.40
2019-02-12T02:49:43.602Z,4.53
2019-02-12T02:54:36.452Z,4.27
2019-02-12T02:59:29.353Z,4.57
2019-02-12T03:04:22.241Z,4.50
2019-02-12T03:09:15.106Z,4.50
2019-02-12T03:14:07.960Z,4.07
2019-02-12T03:19:00.835Z,4.23
2019-02-12T03:23:53.699Z,4.10
2019-02-12T03:28:46.579Z,4.30
2019-02-12T03:33:39.480Z,5.03
2019-02-12T03:38:32.344Z,4.80
2019-02-12T03:43:25.206Z,4.13
2019-02-12T03:48:18.125Z,4.37
2019-02-12T03:53:10.944Z,5.23
2019-02-12T03:58:03.849Z,5.43
2019-02-12T04:03:05.520Z,5.00
2019-02-12T04:07:58.505Z,5.60
2019-02-12T04:12:51.335Z,5.70
2019-02-12T04:17:44.217Z,5.57
2019-02-12T04:22:37.065Z,5.00
2019-02-12T04:27:29.928Z,5.67
2019-02-12T04:32:22.816Z,5.30
2019-02-12T04:37:15.725Z,5.37
2019-02-12T04:42:08.623Z,5.63
2019-02-12T04:47:01.485Z,5.43
2019-02-12T04:51:54.361Z,6.40
2019-02-12T04:56:47.214Z,5.57
2019-02-12T05:01:40.082Z,5.37
2019-02-12T05:06:32.975Z,6.37
2019-02-12T05:11:25.868Z,5.77
2019-02-12T05:16:18.701Z,6.20
2019-02-12T05:21:11.565Z,6.00
2019-02-12T05:26:04.408Z,5.90
2019-02-12T05:30:57.312Z,5.83
2019-02-12T05:35:50.163Z,6.00
2019-02-12T05:40:43.013Z,7.10
2019-02-12T05:45:35.871Z,7.57
2019-02-12T05:50:28.727Z,5.93
2019-02-12T05:55:21.603Z,6.60
2019-02-12T06:00:16.513Z,7.23
2019-02-12T06:05:09.975Z,6.50
2019-02-12T06:10:03.418Z,7.70
2019-02-12T06:14:56.335Z,7.80
2019-02-12T06:19:49.239Z,6.63
2019-02-12T06:24:42.090Z,6.47
2019-02-12T06:29:34.929Z,7.10
2019-02-12T06:34:27.822Z,7.10
2019-02-12T06:39:20.678Z,7.07
2019-02-12T06:44:13.535Z,7.50
2019-02-12T06:49:06.380Z,7.97
2019-02-12T06:53:59.259Z,8.07
2019-02-12T06:58:52.165Z,7.83
2019-02-12T07:04:13.781Z,8.77
2019-02-12T07:09:24.349Z,8.87
2019-02-12T07:14:55.913Z,9.07
2019-02-12T07:21:08.195Z,8.83
2019-02-12T07:27:01.598Z,8.37
2019-02-12T07:32:46.252Z,8.50
2019-02-12T07:38:00.633Z,8.17
2019-02-12T07:44:05.658Z,8.47
2019-02-12T07:49:57.660Z,8.77
2019-02-12T07:55:51.511Z,10.23
2019-02-12T08:01:50.053Z,7.77
2019-02-12T08:07:47.494Z,8.63
2019-02-12T08:13:44.491Z,8.20
2019-02-12T08:19:33.707Z,7.60
2019-02-12T08:25:19.806Z,8.67
2019-02-12T08:30:40.107Z,8.77
2019-02-12T08:36:31.206Z,9.50
2019-02-12T08:42:22.556Z,9.87
2019-02-12T08:47:47.012Z,8.60
2019-02-12T08:53:36.532Z,10.17
2019-02-12T08:59:31.493Z,9.97
2019-02-12T09:04:49.439Z,9.23
2019-02-12T09:11:01.128Z,9.00
2019-02-12T09:16:53.151Z,8.13
2019-02-12T09:22:49.250Z,7.87
2019-02-12T09:28:11.987Z,8.03
2019-02-12T09:33:34.174Z,6.73
2019-02-12T09:39:08.561Z,7.53
2019-02-12T09:44:54.413Z,6.90
2019-02-12T09:50:20.000Z,6.50
2019-02-12T09:56:08.747Z,6.20
2019-02-12T10:01:13.532Z,6.23
2019-02-12T10:07:03.301Z,5.83
2019-02-12T10:12:34.889Z,5.90
2019-02-12T10:18:32.852Z,6.93
2019-02-12T10:24:45.080Z,6.57
2019-02-12T10:30:13.012Z,6.00
2019-02-12T10:35:06.288Z,6.90
2019-02-12T10:39:59.248Z,6.50
2019-02-12T10:44:52.400Z,6.60
2019-02-12T10:49:45.359Z,6.80
2019-02-12T10:54:38.470Z,6.50
2019-02-12T10:59:31.558Z,6.23
2019-02-12T11:04:24.574Z,6.90
2019-02-12T11:09:17.692Z,6.57
2019-02-12T11:14:10.580Z,7.20
2019-02-12T11:19:03.861Z,6.30
2019-02-12T11:23:57.247Z,6.57
2019-02-12T11:28:50.111Z,6.77
2019-02-12T11:33:43.109Z,6.00
2019-02-12T11:38:36.378Z,6.03
2019-02-12T11:43:29.483Z,5.17
2019-02-12T11:48:24.329Z,5.87
2019-02-12T11:53:17.485Z,5.47
2019-02-12T11:58:10.500Z,5.50
2019-02-12T12:03:03.731Z,5.93
2019-02-12T12:07:56.918Z,4.60
2019-02-12T12:12:49.856Z,5.20
2019-02-12T12:17:42.976Z,5.27
2019-02-12T12:22:36.126Z,4.87
2019-02-12T12:27:29.286Z,4.73
2019-02-12T12:32:22.449Z,4.60
2019-02-12T12:37:15.447Z,4.17
2019-02-12T12:42:08.504Z,4.13
2019-02-12T12:47:01.502Z,4.20
2019-02-12T12:51:54.485Z,4.00
2019-02-12T12:56:47.691Z,4.00
2019-02-12T13:01:41.244Z,4.33
2019-02-12T13:06:35.031Z,4.10
2019-02-12T13:11:28.129Z,3.57
2019-02-12T13:16:21.169Z,3.20
2019-02-12T13:21:14.211Z,3.53
2019-02-12T13:26:07.124Z,3.47
2019-02-12T13:31:00.136Z,2.70
2019-02-12T13:35:53.136Z,3.33
2019-02-12T13:40:46.012Z,3.07
2019-02-12T13:45:38.962Z,3.10
2019-02-12T13:50:32.126Z,3.47
2019-02-12T13:55:25.084Z,2.90
2019-02-12T14:00:18.788Z,3.60
2019-02-12T14:05:14.468Z,3.50
2019-02-12T14:10:07.941Z,3.30
2019-02-12T14:15:00.936Z,2.80
2019-02-12T14:19:53.873Z,2.13
2019-02-12T14:24:46.918Z,2.63
2019-02-12T14:29:39.872Z,3.03
2019-02-12T14:34:33.083Z,2.87
2019-02-12T14:39:26.023Z,2.40
2019-02-12T14:44:19.046Z,2.37
2019-02-12T14:49:12.093Z,2.37
2019-02-12T14:54:05.010Z,2.57
2019-02-12T14:58:58.009Z,3.00
2019-02-12T15:03:51.395Z,3.03
2019-02-12T15:08:44.290Z,3.03
2019-02-12T15:13:37.226Z,3.00
2019-02-12T15:18:30.182Z,3.13
2019-02-12T15:23:23.518Z,3.37
2019-02-12T15:28:16.774Z,3.80
2019-02-12T15:33:09.737Z,4.00
2019-02-12T15:38:02.906Z,3.60
2019-02-12T15:42:56.022Z,3.63
2019-02-12T15:47:48.935Z,4.37
2019-02-12T15:52:43.296Z,4.00
2019-02-12T15:57:36.441Z,4.43
2019-02-12T16:02:29.371Z,4.50
2019-02-12T16:07:22.855Z,4.77
2019-02-12T16:12:18.290Z,4.47
2019-02-12T16:17:12.499Z,5.20
2019-02-12T16:22:06.698Z,5.07
2019-02-12T16:26:59.708Z,5.00
2019-02-12T16:31:52.601Z,4.87
2019-02-12T16:36:45.570Z,5.23
2019-02-12T16:41:38.574Z,5.33
2019-02-12T16:46:31.531Z,5.70
2019-02-12T16:51:24.981Z,7.13
2019-02-12T16:56:18.211Z,5.10
2019-02-12T17:01:11.128Z,5.93
2019-02-12T17:06:05.377Z,6.00
2019-02-12T17:10:58.402Z,5.87
2019-02-12T17:15:51.465Z,6.03
2019-02-12T17:20:44.452Z,5.30
2019-02-12T17:25:37.554Z,5.77
2019-02-12T17:30:30.395Z,5.93
2019-02-12T17:35:23.717Z,5.77
2019-02-12T17:40:16.720Z,6.30
2019-02-12T17:45:12.248Z,6.37
2019-02-12T17:50:06.046Z,6.07
2019-02-12T17:54:58.977Z,6.07
2019-02-12T17:59:52.114Z,6.63
2019-02-12T18:04:44.967Z,6.50
2019-02-12T18:09:38.224Z,7.77
2019-02-12T18:14:31.288Z,7.90
2019-02-12T18:19:24.221Z,7.90
2019-02-12T18:24:17.368Z,7.97
2019-02-12T18:29:10.539Z,7.30
2019-02-12T18:34:03.785Z,7.27
2019-02-12T18:38:56.755Z,7.80
2019-02-12T18:43:49.667Z,7.53
2019-02-12T18:48:42.825Z,7.80
2019-02-12T18:53:35.993Z,7.10
2019-02-12T18:58:28.897Z,7.70
2019-02-12T19:03:22.208Z,8.40
2019-02-12T19:08:15.124Z,7.40
2019-02-12T19:13:08.264Z,7.23
2019-02-12T19:18:06.967Z,8.57
2019-02-12T19:22:59.991Z,7.47
2019-02-12T19:27:54.117Z,8.00
2019-02-12T19:32:47.257Z,8.27
2019-02-12T19:37:40.244Z,8.60
2019-02-12T19:42:33.252Z,8.13
2019-02-12T19:47:26.256Z,7.40
2019-02-12T19:52:19.351Z,7.20
2019-02-12T19:57:12.463Z,7.30
2019-02-12T20:02:05.533Z,6.97
2019-02-12T20:06:58.709Z,5.80
2019-02-12T20:11:51.861Z,5.80
2019-02-12T20:16:44.782Z,6.33
2019-02-12T20:21:40.099Z,6.03
2019-02-12T20:26:33.273Z,6.13
2019-02-12T20:31:26.412Z,5.90
2019-02-12T20:36:19.380Z,6.10
2019-02-12T20:41:12.322Z,5.53
2019-02-12T20:46:05.387Z,5.50
2019-02-12T20:50:58.443Z,5.77
2019-02-12T20:55:51.640Z,6.33
2019-02-12T21:00:44.746Z,6.40
2019-02-12T21:05:37.670Z,5.60
2019-02-12T21:10:30.561Z,6.23
2019-02-12T21:15:23.903Z,5.73
2019-02-12T21:20:17.495Z,6.57
2019-02-12T21:25:10.649Z,7.20
2019-02-12T21:30:06.146Z,7.60
2019-02-12T21:35:00.233Z,7.03
2019-02-12T21:39:53.189Z,7.37
2019-02-12T21:44:46.157Z,7.33
2019-02-12T21:49:40.230Z,6.97
2019-02-12T21:54:33.862Z,6.90
2019-02-12T21:59:27.372Z,7.00
2019-02-12T22:04:20.222Z,6.53
2019-02-12T22:09:13.084Z,6.97
2019-02-12T22:14:06.008Z,7.23
2019-02-12T22:18:58.965Z,6.87
2019-02-12T22:23:51.962Z,7.47
2019-02-12T22:28:44.867Z,7.03
2019-02-12T22:33:38.024Z,6.90
2019-02-12T22:38:30.938Z,7.43
2019-02-12T22:43:24.081Z,6.53
2019-02-12T22:48:17.277Z,6.90
2019-02-12T22:53:12.033Z,7.83
2019-02-12T22:58:04.893Z,7.17
2019-02-12T23:02:57.848Z,8.03
2019-02-12T23:07:50.748Z,6.97
2019-02-12T23:12:43.646Z,7.50
2019-02-12T23:17:36.519Z,7.30
2019-02-12T23:22:29.405Z,7.73
2019-02-12T23:27:22.560Z,8.73
2019-02-12T23:32:18.330Z,8.60
2019-02-12T23:37:11.166Z,7.90
2019-02-12T23:42:04.082Z,7.50
2019-02-12T23:46:56.947Z,7.70
2019-02-12T23:51:49.806Z,7.43
2019-02-12T23:56:42.634Z,7.90
